sensor_id;sensor_type;location;lat;lon;timestamp;P1;durP1;ratioP1;P2;durP2;ratioP2
4521;SDS011;2273;48.464;11.926;2023-02-15T00:00:02;52.10;;;17.60;;
4521;SDS011;2273;48.464;11.926;2023-02-15T00:02:33;41.53;;;16.23;;
4521;SDS011;2273;48.464;11.926;2023-02-15T00:04:58;106.07;;;17.60;;
4521;SDS011;2273;48.464;11.926;2023-02-15T00:07:24;29.70;;;17.03;;
4521;SDS011;2273;48.464;11.926;2023-02-15T00:09:49;88.33;;;16.17;;
4521;SDS011;2273;48.464;11.926;2023-02-15T00:12:15;66.67;;;16.60;;
4521;SDS011;2273;48.464;11.926;2023-02-15T00:14:40;100.85;;;17.20;;
4521;SDS011;2273;48.464;11.926;2023-02-15T00:17:07;29.23;;;15.60;;
4521;SDS011;2273;48.464;11.926;2023-02-15T00:19:32;63.43;;;16.73;;
4521;SDS011;2273;48.464;11.926;2023-02-15T00:21:58;82.63;;;16.87;;
4521;SDS011;2273;48.464;11.926;2023-02-15T00:24:23;231.30;;;18.30;;
4521;SDS011;2273;48.464;11.926;2023-02-15T00:26:49;66.47;;;16.47;;
4521;SDS011;2273;48.464;11.926;2023-02-15T00:29:15;56.43;;;16.10;;
4521;SDS011;2273;48.464;11.926;2023-02-15T00:31:42;39.95;;;15.82;;
4521;SDS011;2273;48.464;11.926;2023-02-15T00:34:12;30.47;;;17.17;;
4521;SDS011;2273;48.464;11.926;2023-02-15T00:36:40;52.15;;;16.10;;
4521;SDS011;2273;48.464;11.926;2023-02-15T00:39:06;38.73;;;16.60;;
4521;SDS011;2273;48.464;11.926;2023-02-15T00:41:32;44.33;;;17.10;;
4521;SDS011;2273;48.464;11.926;2023-02-15T00:43:57;56.38;;;15.68;;
4521;SDS011;2273;48.464;11.926;2023-02-15T00:46:23;36.93;;;15.43;;
4521;SDS011;2273;48.464;11.926;2023-02-15T00:48:48;60.13;;;16.87;;
4521;SDS011;2273;48.464;11.926;2023-02-15T00:51:14;50.37;;;15.43;;
4521;SDS011;2273;48.464;11.926;2023-02-15T00:53:40;57.20;;;15.67;;
4521;SDS011;2273;48.464;11.926;2023-02-15T00:56:06;48.00;;;15.25;;
4521;SDS011;2273;48.464;11.926;2023-02-15T00:58:31;31.43;;;16.40;;
4521;SDS011;2273;48.464;11.926;2023-02-15T01:01:02;36.77;;;16.00;;
4521;SDS011;2273;48.464;11.926;2023-02-15T01:03:28;36.10;;;16.90;;
4521;SDS011;2273;48.464;11.926;2023-02-15T01:05:54;24.37;;;13.57;;
4521;SDS011;2273;48.464;11.926;2023-02-15T01:08:19;34.33;;;15.50;;
4521;SDS011;2273;48.464;11.926;2023-02-15T01:10:45;40.80;;;15.70;;
4521;SDS011;2273;48.464;11.926;2023-02-15T01:13:12;31.75;;;14.32;;
4521;SDS011;2273;48.464;11.926;2023-02-15T01:15:39;39.17;;;14.55;;
4521;SDS011;2273;48.464;11.926;2023-02-15T01:18:05;32.20;;;13.03;;
4521;SDS011;2273;48.464;11.926;2023-02-15T01:20:33;39.93;;;15.00;;
4521;SDS011;2273;48.464;11.926;2023-02-15T01:22:59;41.53;;;14.75;;
4521;SDS011;2273;48.464;11.926;2023-02-15T01:25:25;26.40;;;13.90;;
4521;SDS011;2273;48.464;11.926;2023-02-15T01:27:50;62.60;;;14.37;;
4521;SDS011;2273;48.464;11.926;2023-02-15T01:30:16;70.03;;;14.37;;
4521;SDS011;2273;48.464;11.926;2023-02-15T01:32:41;35.03;;;14.47;;
4521;SDS011;2273;48.464;11.926;2023-02-15T01:35:07;48.33;;;14.53;;
4521;SDS011;2273;48.464;11.926;2023-02-15T01:37:33;59.58;;;15.20;;
4521;SDS011;2273;48.464;11.926;2023-02-15T01:39:59;95.00;;;14.60;;
4521;SDS011;2273;48.464;11.926;2023-02-15T01:42:25;24.90;;;13.75;;
4521;SDS011;2273;48.464;11.926;2023-02-15T01:44:53;58.88;;;15.10;;
4521;SDS011;2273;48.464;11.926;2023-02-15T01:50:17;96.47;;;16.00;;
4521;SDS011;2273;48.464;11.926;2023-02-15T01:52:45;60.75;;;17.58;;
4521;SDS011;2273;48.464;11.926;2023-02-15T01:55:16;54.67;;;15.73;;
4521;SDS011;2273;48.464;11.926;2023-02-15T01:57:42;29.57;;;13.80;;
4521;SDS011;2273;48.464;11.926;2023-02-15T02:00:08;188.57;;;15.70;;
4521;SDS011;2273;48.464;11.926;2023-02-15T02:02:41;25.35;;;12.93;;
4521;SDS011;2273;48.464;11.926;2023-02-15T02:05:07;35.83;;;13.50;;
4521;SDS011;2273;48.464;11.926;2023-02-15T02:07:34;63.90;;;14.93;;
4521;SDS011;2273;48.464;11.926;2023-02-15T02:10:04;111.03;;;15.23;;
4521;SDS011;2273;48.464;11.926;2023-02-15T02:12:32;57.08;;;14.55;;
4521;SDS011;2273;48.464;11.926;2023-02-15T02:14:57;24.47;;;14.20;;
4521;SDS011;2273;48.464;11.926;2023-02-15T02:41:17;115.70;;;19.65;;
4521;SDS011;2273;48.464;11.926;2023-02-15T02:44:01;78.25;;;16.98;;
4521;SDS011;2273;48.464;11.926;2023-02-15T02:49:17;26.88;;;13.85;;
4521;SDS011;2273;48.464;11.926;2023-02-15T02:52:02;55.55;;;14.73;;
4521;SDS011;2273;48.464;11.926;2023-02-15T02:54:31;44.72;;;16.63;;
4521;SDS011;2273;48.464;11.926;2023-02-15T02:56:59;25.45;;;14.35;;
4521;SDS011;2273;48.464;11.926;2023-02-15T02:59:33;36.50;;;14.60;;
4521;SDS011;2273;48.464;11.926;2023-02-15T03:02:09;26.90;;;15.35;;
4521;SDS011;2273;48.464;11.926;2023-02-15T03:04:40;59.28;;;13.93;;
4521;SDS011;2273;48.464;11.926;2023-02-15T03:07:11;59.55;;;15.68;;
4521;SDS011;2273;48.464;11.926;2023-02-15T03:09:41;31.27;;;14.52;;
4521;SDS011;2273;48.464;11.926;2023-02-15T03:14:43;28.25;;;14.93;;
4521;SDS011;2273;48.464;11.926;2023-02-15T03:17:11;27.33;;;15.15;;
4521;SDS011;2273;48.464;11.926;2023-02-15T03:19:37;26.15;;;14.40;;
4521;SDS011;2273;48.464;11.926;2023-02-15T03:22:14;40.05;;;16.70;;
4521;SDS011;2273;48.464;11.926;2023-02-15T03:24:50;43.03;;;16.40;;
4521;SDS011;2273;48.464;11.926;2023-02-15T03:27:37;29.95;;;16.88;;
4521;SDS011;2273;48.464;11.926;2023-02-15T03:30:06;32.65;;;14.63;;
4521;SDS011;2273;48.464;11.926;2023-02-15T03:32:32;27.00;;;13.85;;
4521;SDS011;2273;48.464;11.926;2023-02-15T03:34:58;28.95;;;14.15;;
4521;SDS011;2273;48.464;11.926;2023-02-15T03:37:26;25.30;;;14.20;;
4521;SDS011;2273;48.464;11.926;2023-02-15T03:40:03;69.70;;;15.38;;
4521;SDS011;2273;48.464;11.926;2023-02-15T03:42:58;33.60;;;15.45;;
4521;SDS011;2273;48.464;11.926;2023-02-15T03:45:46;30.95;;;14.27;;
4521;SDS011;2273;48.464;11.926;2023-02-15T03:48:39;30.48;;;15.10;;
4521;SDS011;2273;48.464;11.926;2023-02-15T03:51:08;28.10;;;13.50;;
4521;SDS011;2273;48.464;11.926;2023-02-15T03:53:54;55.20;;;15.15;;
4521;SDS011;2273;48.464;11.926;2023-02-15T03:56:21;39.28;;;15.57;;
4521;SDS011;2273;48.464;11.926;2023-02-15T03:58:47;42.43;;;14.90;;
4521;SDS011;2273;48.464;11.926;2023-02-15T04:04:25;31.73;;;14.93;;
4521;SDS011;2273;48.464;11.926;2023-02-15T04:07:06;28.13;;;14.18;;
4521;SDS011;2273;48.464;11.926;2023-02-15T04:09:32;38.95;;;15.38;;
4521;SDS011;2273;48.464;11.926;2023-02-15T04:12:15;31.80;;;14.98;;
4521;SDS011;2273;48.464;11.926;2023-02-15T04:14:41;36.23;;;14.40;;
4521;SDS011;2273;48.464;11.926;2023-02-15T04:17:25;39.85;;;14.88;;
4521;SDS011;2273;48.464;11.926;2023-02-15T04:19:50;25.20;;;14.10;;
4521;SDS011;2273;48.464;11.926;2023-02-15T04:22:34;27.38;;;14.50;;
4521;SDS011;2273;48.464;11.926;2023-02-15T04:25:18;27.15;;;15.20;;
4521;SDS011;2273;48.464;11.926;2023-02-15T04:27:45;42.13;;;15.10;;
4521;SDS011;2273;48.464;11.926;2023-02-15T04:30:12;33.17;;;14.60;;
4521;SDS011;2273;48.464;11.926;2023-02-15T04:32:38;36.88;;;14.20;;
4521;SDS011;2273;48.464;11.926;2023-02-15T04:35:04;31.13;;;16.00;;
4521;SDS011;2273;48.464;11.926;2023-02-15T04:37:30;26.48;;;15.63;;
4521;SDS011;2273;48.464;11.926;2023-02-15T04:39:56;23.73;;;14.23;;
4521;SDS011;2273;48.464;11.926;2023-02-15T04:42:24;27.98;;;15.68;;
4521;SDS011;2273;48.464;11.926;2023-02-15T04:44:50;24.70;;;13.98;;
4521;SDS011;2273;48.464;11.926;2023-02-15T04:47:16;26.40;;;15.13;;
4521;SDS011;2273;48.464;11.926;2023-02-15T04:49:41;26.63;;;14.37;;
4521;SDS011;2273;48.464;11.926;2023-02-15T04:52:07;27.53;;;13.97;;
4521;SDS011;2273;48.464;11.926;2023-02-15T04:54:33;33.10;;;15.43;;
4521;SDS011;2273;48.464;11.926;2023-02-15T04:56:58;48.73;;;14.87;;
4521;SDS011;2273;48.464;11.926;2023-02-15T04:59:24;25.80;;;14.40;;
4521;SDS011;2273;48.464;11.926;2023-02-15T05:01:49;36.13;;;14.30;;
4521;SDS011;2273;48.464;11.926;2023-02-15T05:04:14;29.67;;;15.87;;
4521;SDS011;2273;48.464;11.926;2023-02-15T05:06:40;89.30;;;16.20;;
4521;SDS011;2273;48.464;11.926;2023-02-15T05:09:05;27.77;;;14.80;;
4521;SDS011;2273;48.464;11.926;2023-02-15T05:11:31;30.90;;;15.53;;
4521;SDS011;2273;48.464;11.926;2023-02-15T05:13:56;32.33;;;15.17;;
4521;SDS011;2273;48.464;11.926;2023-02-15T05:16:22;25.83;;;14.47;;
4521;SDS011;2273;48.464;11.926;2023-02-15T05:18:47;62.07;;;15.13;;
4521;SDS011;2273;48.464;11.926;2023-02-15T05:21:12;41.97;;;15.90;;
4521;SDS011;2273;48.464;11.926;2023-02-15T05:23:38;26.53;;;14.47;;
4521;SDS011;2273;48.464;11.926;2023-02-15T05:26:04;24.47;;;13.73;;
4521;SDS011;2273;48.464;11.926;2023-02-15T05:28:48;39.92;;;15.07;;
4521;SDS011;2273;48.464;11.926;2023-02-15T05:31:14;29.43;;;13.93;;
4521;SDS011;2273;48.464;11.926;2023-02-15T05:33:41;42.80;;;15.30;;
4521;SDS011;2273;48.464;11.926;2023-02-15T05:36:08;29.60;;;14.13;;
4521;SDS011;2273;48.464;11.926;2023-02-15T05:38:34;25.25;;;14.63;;
4521;SDS011;2273;48.464;11.926;2023-02-15T05:41:01;24.42;;;14.00;;
4521;SDS011;2273;48.464;11.926;2023-02-15T05:43:27;25.00;;;14.60;;
4521;SDS011;2273;48.464;11.926;2023-02-15T05:45:53;51.83;;;15.30;;
4521;SDS011;2273;48.464;11.926;2023-02-15T05:48:20;23.80;;;13.65;;
4521;SDS011;2273;48.464;11.926;2023-02-15T05:50:46;32.95;;;14.23;;
4521;SDS011;2273;48.464;11.926;2023-02-15T05:53:12;24.13;;;13.17;;
4521;SDS011;2273;48.464;11.926;2023-02-15T05:55:38;22.90;;;14.00;;
4521;SDS011;2273;48.464;11.926;2023-02-15T05:58:04;116.90;;;16.50;;
4521;SDS011;2273;48.464;11.926;2023-02-15T06:00:30;25.13;;;14.60;;
4521;SDS011;2273;48.464;11.926;2023-02-15T06:02:56;71.40;;;14.80;;
4521;SDS011;2273;48.464;11.926;2023-02-15T06:05:21;67.13;;;19.73;;
4521;SDS011;2273;48.464;11.926;2023-02-15T06:07:46;65.23;;;17.17;;
4521;SDS011;2273;48.464;11.926;2023-02-15T06:10:12;53.33;;;17.17;;
4521;SDS011;2273;48.464;11.926;2023-02-15T06:12:37;41.60;;;16.03;;
4521;SDS011;2273;48.464;11.926;2023-02-15T06:15:03;58.07;;;15.60;;
4521;SDS011;2273;48.464;11.926;2023-02-15T06:17:29;24.73;;;13.80;;
4521;SDS011;2273;48.464;11.926;2023-02-15T06:19:54;24.30;;;14.53;;
4521;SDS011;2273;48.464;11.926;2023-02-15T06:22:20;39.20;;;16.67;;
4521;SDS011;2273;48.464;11.926;2023-02-15T06:24:45;64.10;;;17.00;;
4521;SDS011;2273;48.464;11.926;2023-02-15T06:27:11;39.50;;;15.68;;
4521;SDS011;2273;48.464;11.926;2023-02-15T06:29:37;33.57;;;15.13;;
4521;SDS011;2273;48.464;11.926;2023-02-15T06:32:02;59.50;;;15.57;;
4521;SDS011;2273;48.464;11.926;2023-02-15T06:34:28;26.40;;;14.67;;
4521;SDS011;2273;48.464;11.926;2023-02-15T06:36:53;31.33;;;15.63;;
4521;SDS011;2273;48.464;11.926;2023-02-15T06:39:19;30.20;;;14.80;;
4521;SDS011;2273;48.464;11.926;2023-02-15T06:41:44;70.90;;;15.53;;
4521;SDS011;2273;48.464;11.926;2023-02-15T06:44:09;27.77;;;15.43;;
4521;SDS011;2273;48.464;11.926;2023-02-15T06:46:35;53.63;;;16.87;;
4521;SDS011;2273;48.464;11.926;2023-02-15T06:49:00;47.57;;;16.50;;
4521;SDS011;2273;48.464;11.926;2023-02-15T06:51:25;41.27;;;16.47;;
4521;SDS011;2273;48.464;11.926;2023-02-15T06:53:51;68.13;;;15.97;;
4521;SDS011;2273;48.464;11.926;2023-02-15T06:56:16;26.97;;;15.07;;
4521;SDS011;2273;48.464;11.926;2023-02-15T06:58:42;38.50;;;17.20;;
4521;SDS011;2273;48.464;11.926;2023-02-15T07:01:08;113.17;;;18.00;;
4521;SDS011;2273;48.464;11.926;2023-02-15T07:03:34;34.85;;;15.07;;
4521;SDS011;2273;48.464;11.926;2023-02-15T07:06:00;34.10;;;15.80;;
4521;SDS011;2273;48.464;11.926;2023-02-15T07:08:27;24.80;;;14.15;;
4521;SDS011;2273;48.464;11.926;2023-02-15T07:10:53;28.13;;;14.60;;
4521;SDS011;2273;48.464;11.926;2023-02-15T07:13:19;35.05;;;16.63;;
4521;SDS011;2273;48.464;11.926;2023-02-15T07:15:45;34.93;;;15.73;;
4521;SDS011;2273;48.464;11.926;2023-02-15T07:18:12;28.10;;;15.65;;
4521;SDS011;2273;48.464;11.926;2023-02-15T07:20:37;25.90;;;15.07;;
4521;SDS011;2273;48.464;11.926;2023-02-15T07:23:04;51.10;;;15.33;;
4521;SDS011;2273;48.464;11.926;2023-02-15T07:25:29;79.88;;;15.82;;
4521;SDS011;2273;48.464;11.926;2023-02-15T07:27:56;33.23;;;14.53;;
4521;SDS011;2273;48.464;11.926;2023-02-15T07:30:22;35.65;;;13.82;;
4521;SDS011;2273;48.464;11.926;2023-02-15T07:32:47;128.03;;;16.40;;
4521;SDS011;2273;48.464;11.926;2023-02-15T07:35:32;30.17;;;14.52;;
4521;SDS011;2273;48.464;11.926;2023-02-15T07:37:58;26.40;;;14.13;;
4521;SDS011;2273;48.464;11.926;2023-02-15T07:40:23;27.60;;;15.30;;
4521;SDS011;2273;48.464;11.926;2023-02-15T07:42:49;49.27;;;15.43;;
4521;SDS011;2273;48.464;11.926;2023-02-15T07:45:17;27.70;;;14.35;;
4521;SDS011;2273;48.464;11.926;2023-02-15T07:47:43;27.13;;;14.70;;
4521;SDS011;2273;48.464;11.926;2023-02-15T07:50:08;44.63;;;15.77;;
4521;SDS011;2273;48.464;11.926;2023-02-15T07:52:34;34.80;;;15.23;;
4521;SDS011;2273;48.464;11.926;2023-02-15T07:54:59;37.10;;;15.33;;
4521;SDS011;2273;48.464;11.926;2023-02-15T07:57:24;35.93;;;16.23;;
4521;SDS011;2273;48.464;11.926;2023-02-15T07:59:50;38.13;;;14.47;;
4521;SDS011;2273;48.464;11.926;2023-02-15T08:02:15;33.83;;;15.00;;
4521;SDS011;2273;48.464;11.926;2023-02-15T08:04:41;28.03;;;14.93;;
4521;SDS011;2273;48.464;11.926;2023-02-15T08:07:06;26.90;;;14.50;;
4521;SDS011;2273;48.464;11.926;2023-02-15T08:09:32;30.40;;;14.77;;
4521;SDS011;2273;48.464;11.926;2023-02-15T08:11:57;28.63;;;15.07;;
4521;SDS011;2273;48.464;11.926;2023-02-15T08:14:23;31.60;;;15.70;;
4521;SDS011;2273;48.464;11.926;2023-02-15T08:16:49;31.40;;;16.20;;
4521;SDS011;2273;48.464;11.926;2023-02-15T08:21:46;30.60;;;15.70;;
4521;SDS011;2273;48.464;11.926;2023-02-15T08:24:19;48.08;;;15.85;;
4521;SDS011;2273;48.464;11.926;2023-02-15T08:26:46;33.40;;;17.65;;
4521;SDS011;2273;48.464;11.926;2023-02-15T08:29:16;31.23;;;16.52;;
4521;SDS011;2273;48.464;11.926;2023-02-15T08:31:43;24.85;;;13.10;;
4521;SDS011;2273;48.464;11.926;2023-02-15T08:34:09;29.73;;;13.97;;
4521;SDS011;2273;48.464;11.926;2023-02-15T08:36:36;26.55;;;14.30;;
4521;SDS011;2273;48.464;11.926;2023-02-15T08:39:02;60.60;;;17.33;;
4521;SDS011;2273;48.464;11.926;2023-02-15T08:41:30;29.55;;;16.00;;
4521;SDS011;2273;48.464;11.926;2023-02-15T08:44:00;37.15;;;15.85;;
4521;SDS011;2273;48.464;11.926;2023-02-15T08:46:30;40.60;;;14.95;;
4521;SDS011;2273;48.464;11.926;2023-02-15T08:48:57;28.48;;;14.52;;
4521;SDS011;2273;48.464;11.926;2023-02-15T08:51:24;26.58;;;14.00;;
4521;SDS011;2273;48.464;11.926;2023-02-15T08:53:56;36.78;;;16.35;;
4521;SDS011;2273;48.464;11.926;2023-02-15T08:56:27;34.58;;;13.00;;
4521;SDS011;2273;48.464;11.926;2023-02-15T08:58:53;28.73;;;14.75;;
4521;SDS011;2273;48.464;11.926;2023-02-15T09:01:20;29.60;;;14.50;;
4521;SDS011;2273;48.464;11.926;2023-02-15T09:03:48;36.10;;;15.15;;
4521;SDS011;2273;48.464;11.926;2023-02-15T09:06:20;29.67;;;15.45;;
4521;SDS011;2273;48.464;11.926;2023-02-15T09:08:46;29.73;;;15.80;;
4521;SDS011;2273;48.464;11.926;2023-02-15T09:11:19;25.43;;;14.27;;
4521;SDS011;2273;48.464;11.926;2023-02-15T09:13:59;26.60;;;14.52;;
4521;SDS011;2273;48.464;11.926;2023-02-15T09:16:26;25.70;;;13.85;;
4521;SDS011;2273;48.464;11.926;2023-02-15T09:18:54;30.48;;;15.93;;
4521;SDS011;2273;48.464;11.926;2023-02-15T09:21:21;26.00;;;14.27;;
4521;SDS011;2273;48.464;11.926;2023-02-15T09:23:48;29.00;;;15.20;;
4521;SDS011;2273;48.464;11.926;2023-02-15T09:26:16;28.77;;;15.15;;
4521;SDS011;2273;48.464;11.926;2023-02-15T09:28:46;30.80;;;15.48;;
4521;SDS011;2273;48.464;11.926;2023-02-15T09:31:16;26.55;;;14.20;;
4521;SDS011;2273;48.464;11.926;2023-02-15T09:33:44;38.60;;;17.15;;
4521;SDS011;2273;48.464;11.926;2023-02-15T09:36:20;31.10;;;15.90;;
4521;SDS011;2273;48.464;11.926;2023-02-15T09:47:20;33.20;;;16.73;;
4521;SDS011;2273;48.464;11.926;2023-02-15T09:53:58;33.75;;;15.45;;
4521;SDS011;2273;48.464;11.926;2023-02-15T09:59:19;26.75;;;14.30;;
4521;SDS011;2273;48.464;11.926;2023-02-15T10:05:00;27.35;;;15.40;;
4521;SDS011;2273;48.464;11.926;2023-02-15T10:10:10;29.38;;;15.40;;
4521;SDS011;2273;48.464;11.926;2023-02-15T10:18:03;33.05;;;16.10;;
4521;SDS011;2273;48.464;11.926;2023-02-15T10:28:51;26.20;;;15.05;;
4521;SDS011;2273;48.464;11.926;2023-02-15T10:31:39;28.65;;;15.27;;
4521;SDS011;2273;48.464;11.926;2023-02-15T10:34:19;29.05;;;15.02;;
4521;SDS011;2273;48.464;11.926;2023-02-15T10:36:55;28.35;;;15.80;;
4521;SDS011;2273;48.464;11.926;2023-02-15T10:42:14;27.25;;;14.95;;
4521;SDS011;2273;48.464;11.926;2023-02-15T10:47:17;29.70;;;16.13;;
4521;SDS011;2273;48.464;11.926;2023-02-15T10:53:14;28.40;;;15.95;;
4521;SDS011;2273;48.464;11.926;2023-02-15T10:55:47;26.60;;;14.85;;
4521;SDS011;2273;48.464;11.926;2023-02-15T11:01:18;28.10;;;15.05;;
4521;SDS011;2273;48.464;11.926;2023-02-15T11:06:43;26.33;;;14.88;;
4521;SDS011;2273;48.464;11.926;2023-02-15T11:09:13;31.73;;;15.93;;
4521;SDS011;2273;48.464;11.926;2023-02-15T11:11:42;29.80;;;15.80;;
4521;SDS011;2273;48.464;11.926;2023-02-15T11:14:12;26.42;;;15.48;;
4521;SDS011;2273;48.464;11.926;2023-02-15T11:16:41;25.65;;;14.30;;
4521;SDS011;2273;48.464;11.926;2023-02-15T11:21:44;30.90;;;17.65;;
4521;SDS011;2273;48.464;11.926;2023-02-15T11:24:21;27.25;;;15.65;;
4521;SDS011;2273;48.464;11.926;2023-02-15T11:26:51;26.52;;;14.90;;
4521;SDS011;2273;48.464;11.926;2023-02-15T11:31:53;28.13;;;16.73;;
4521;SDS011;2273;48.464;11.926;2023-02-15T11:36:48;33.20;;;16.90;;
4521;SDS011;2273;48.464;11.926;2023-02-15T11:39:16;28.13;;;15.70;;
4521;SDS011;2273;48.464;11.926;2023-02-15T11:41:50;31.40;;;17.60;;
4521;SDS011;2273;48.464;11.926;2023-02-15T11:44:23;33.22;;;17.77;;
4521;SDS011;2273;48.464;11.926;2023-02-15T11:46:51;32.00;;;17.85;;
4521;SDS011;2273;48.464;11.926;2023-02-15T11:51:48;34.50;;;17.55;;
4521;SDS011;2273;48.464;11.926;2023-02-15T11:54:17;28.10;;;16.65;;
4521;SDS011;2273;48.464;11.926;2023-02-15T11:56:51;35.75;;;18.00;;
4521;SDS011;2273;48.464;11.926;2023-02-15T11:59:22;36.63;;;19.43;;
4521;SDS011;2273;48.464;11.926;2023-02-15T12:01:52;30.63;;;16.27;;
4521;SDS011;2273;48.464;11.926;2023-02-15T12:12:35;32.25;;;18.40;;
4521;SDS011;2273;48.464;11.926;2023-02-15T12:14:58;35.75;;;18.65;;
4521;SDS011;2273;48.464;11.926;2023-02-15T12:17:26;37.22;;;19.52;;
4521;SDS011;2273;48.464;11.926;2023-02-15T12:19:55;33.90;;;19.30;;
4521;SDS011;2273;48.464;11.926;2023-02-15T12:22:26;35.08;;;20.83;;
4521;SDS011;2273;48.464;11.926;2023-02-15T12:24:58;38.50;;;20.00;;
4521;SDS011;2273;48.464;11.926;2023-02-15T12:27:28;33.20;;;18.55;;
4521;SDS011;2273;48.464;11.926;2023-02-15T12:30:06;36.72;;;19.95;;
4521;SDS011;2273;48.464;11.926;2023-02-15T12:32:51;33.25;;;18.77;;
4521;SDS011;2273;48.464;11.926;2023-02-15T12:37:54;38.15;;;19.30;;
4521;SDS011;2273;48.464;11.926;2023-02-15T12:40:23;32.75;;;18.42;;
4521;SDS011;2273;48.464;11.926;2023-02-15T12:42:51;32.80;;;20.10;;
4521;SDS011;2273;48.464;11.926;2023-02-15T12:45:21;34.90;;;19.83;;
4521;SDS011;2273;48.464;11.926;2023-02-15T12:48:08;34.50;;;18.60;;
4521;SDS011;2273;48.464;11.926;2023-02-15T12:50:41;34.70;;;20.58;;
4521;SDS011;2273;48.464;11.926;2023-02-15T12:58:17;41.83;;;20.52;;
4521;SDS011;2273;48.464;11.926;2023-02-15T13:00:52;37.17;;;20.58;;
4521;SDS011;2273;48.464;11.926;2023-02-15T13:03:28;36.05;;;21.90;;
4521;SDS011;2273;48.464;11.926;2023-02-15T13:05:54;37.27;;;20.80;;
4521;SDS011;2273;48.464;11.926;2023-02-15T13:08:21;36.53;;;20.65;;
4521;SDS011;2273;48.464;11.926;2023-02-15T13:14:19;38.42;;;20.77;;
4521;SDS011;2273;48.464;11.926;2023-02-15T13:16:30;37.40;;;21.80;;
4521;SDS011;2273;48.464;11.926;2023-02-15T13:18:57;37.13;;;19.98;;
4521;SDS011;2273;48.464;11.926;2023-02-15T13:21:31;33.93;;;19.70;;
4521;SDS011;2273;48.464;11.926;2023-02-15T13:24:01;38.95;;;20.45;;
4521;SDS011;2273;48.464;11.926;2023-02-15T13:26:41;37.92;;;20.75;;
4521;SDS011;2273;48.464;11.926;2023-02-15T13:29:12;35.85;;;21.20;;
4521;SDS011;2273;48.464;11.926;2023-02-15T13:31:42;36.90;;;20.15;;
4521;SDS011;2273;48.464;11.926;2023-02-15T13:34:10;36.78;;;21.08;;
4521;SDS011;2273;48.464;11.926;2023-02-15T13:36:51;34.17;;;21.23;;
4521;SDS011;2273;48.464;11.926;2023-02-15T13:39:24;34.83;;;20.05;;
4521;SDS011;2273;48.464;11.926;2023-02-15T13:42:30;37.28;;;21.83;;
4521;SDS011;2273;48.464;11.926;2023-02-15T14:07:38;36.35;;;21.30;;
4521;SDS011;2273;48.464;11.926;2023-02-15T14:10:28;40.88;;;21.58;;
4521;SDS011;2273;48.464;11.926;2023-02-15T14:15:50;37.20;;;21.75;;
4521;SDS011;2273;48.464;11.926;2023-02-15T14:18:25;40.55;;;23.98;;
4521;SDS011;2273;48.464;11.926;2023-02-15T14:21:10;38.72;;;22.08;;
4521;SDS011;2273;48.464;11.926;2023-02-15T14:32:08;39.67;;;23.55;;
4521;SDS011;2273;48.464;11.926;2023-02-15T14:34:48;40.88;;;22.95;;
4521;SDS011;2273;48.464;11.926;2023-02-15T14:37:16;36.40;;;20.30;;
4521;SDS011;2273;48.464;11.926;2023-02-15T14:42:57;38.22;;;22.75;;
4521;SDS011;2273;48.464;11.926;2023-02-15T14:45:30;40.38;;;23.13;;
4521;SDS011;2273;48.464;11.926;2023-02-15T14:48:28;41.42;;;22.00;;
4521;SDS011;2273;48.464;11.926;2023-02-15T14:50:56;39.15;;;21.88;;
4521;SDS011;2273;48.464;11.926;2023-02-15T14:53:34;43.83;;;23.97;;
4521;SDS011;2273;48.464;11.926;2023-02-15T14:58:35;45.83;;;24.30;;
4521;SDS011;2273;48.464;11.926;2023-02-15T15:01:25;53.47;;;29.27;;
4521;SDS011;2273;48.464;11.926;2023-02-15T15:03:53;52.20;;;29.42;;
4521;SDS011;2273;48.464;11.926;2023-02-15T15:06:31;42.55;;;24.50;;
4521;SDS011;2273;48.464;11.926;2023-02-15T15:09:00;39.05;;;22.05;;
4521;SDS011;2273;48.464;11.926;2023-02-15T15:11:38;38.78;;;22.55;;
4521;SDS011;2273;48.464;11.926;2023-02-15T15:14:08;40.80;;;23.85;;
4521;SDS011;2273;48.464;11.926;2023-02-15T15:19:00;43.67;;;24.97;;
4521;SDS011;2273;48.464;11.926;2023-02-15T15:35:23;44.53;;;24.75;;
4521;SDS011;2273;48.464;11.926;2023-02-15T15:40:41;45.08;;;25.30;;
4521;SDS011;2273;48.464;11.926;2023-02-15T15:48:38;42.28;;;23.85;;
4521;SDS011;2273;48.464;11.926;2023-02-15T15:51:09;38.85;;;22.20;;
4521;SDS011;2273;48.464;11.926;2023-02-15T15:53:41;40.60;;;22.38;;
4521;SDS011;2273;48.464;11.926;2023-02-15T15:56:15;38.28;;;23.80;;
4521;SDS011;2273;48.464;11.926;2023-02-15T15:58:52;41.00;;;22.75;;
4521;SDS011;2273;48.464;11.926;2023-02-15T16:01:27;42.47;;;23.73;;
4521;SDS011;2273;48.464;11.926;2023-02-15T16:03:57;42.70;;;24.45;;
4521;SDS011;2273;48.464;11.926;2023-02-15T16:06:33;45.03;;;25.10;;
4521;SDS011;2273;48.464;11.926;2023-02-15T16:09:09;45.05;;;23.42;;
4521;SDS011;2273;48.464;11.926;2023-02-15T16:11:40;41.05;;;23.27;;
4521;SDS011;2273;48.464;11.926;2023-02-15T16:14:11;39.23;;;22.43;;
4521;SDS011;2273;48.464;11.926;2023-02-15T16:16:38;41.45;;;22.92;;
4521;SDS011;2273;48.464;11.926;2023-02-15T16:19:03;38.77;;;23.20;;
4521;SDS011;2273;48.464;11.926;2023-02-15T16:21:34;41.80;;;24.05;;
4521;SDS011;2273;48.464;11.926;2023-02-15T16:29:39;42.28;;;24.15;;
4521;SDS011;2273;48.464;11.926;2023-02-15T16:32:05;39.57;;;22.67;;
4521;SDS011;2273;48.464;11.926;2023-02-15T16:37:20;47.00;;;26.83;;
4521;SDS011;2273;48.464;11.926;2023-02-15T16:39:48;50.92;;;27.25;;
4521;SDS011;2273;48.464;11.926;2023-02-15T16:42:14;42.60;;;23.70;;
4521;SDS011;2273;48.464;11.926;2023-02-15T16:44:42;42.92;;;24.38;;
4521;SDS011;2273;48.464;11.926;2023-02-15T16:47:12;41.25;;;23.50;;
4521;SDS011;2273;48.464;11.926;2023-02-15T16:49:44;45.58;;;25.05;;
4521;SDS011;2273;48.464;11.926;2023-02-15T16:52:13;43.42;;;25.60;;
4521;SDS011;2273;48.464;11.926;2023-02-15T16:54:43;42.65;;;25.45;;
4521;SDS011;2273;48.464;11.926;2023-02-15T16:57:19;49.83;;;26.90;;
4521;SDS011;2273;48.464;11.926;2023-02-15T16:59:48;51.72;;;25.73;;
4521;SDS011;2273;48.464;11.926;2023-02-15T17:02:19;46.20;;;25.55;;
4521;SDS011;2273;48.464;11.926;2023-02-15T17:07:38;42.97;;;25.58;;
4521;SDS011;2273;48.464;11.926;2023-02-15T17:10:27;49.03;;;27.25;;
4521;SDS011;2273;48.464;11.926;2023-02-15T17:12:54;47.15;;;25.70;;
4521;SDS011;2273;48.464;11.926;2023-02-15T17:15:26;50.67;;;26.83;;
4521;SDS011;2273;48.464;11.926;2023-02-15T17:17:55;54.70;;;28.08;;
4521;SDS011;2273;48.464;11.926;2023-02-15T17:20:22;55.08;;;27.58;;
4521;SDS011;2273;48.464;11.926;2023-02-15T17:22:48;48.83;;;25.88;;
4521;SDS011;2273;48.464;11.926;2023-02-15T17:25:20;53.07;;;27.53;;
4521;SDS011;2273;48.464;11.926;2023-02-15T17:27:53;50.88;;;26.80;;
4521;SDS011;2273;48.464;11.926;2023-02-15T17:30:28;50.80;;;25.92;;
4521;SDS011;2273;48.464;11.926;2023-02-15T17:33:00;54.33;;;29.20;;
4521;SDS011;2273;48.464;11.926;2023-02-15T17:35:33;43.03;;;24.48;;
4521;SDS011;2273;48.464;11.926;2023-02-15T17:40:32;54.65;;;27.42;;
4521;SDS011;2273;48.464;11.926;2023-02-15T17:42:59;49.88;;;25.95;;
4521;SDS011;2273;48.464;11.926;2023-02-15T17:45:27;52.55;;;26.65;;
4521;SDS011;2273;48.464;11.926;2023-02-15T17:48:04;48.50;;;25.20;;
4521;SDS011;2273;48.464;11.926;2023-02-15T17:50:30;54.28;;;26.65;;
4521;SDS011;2273;48.464;11.926;2023-02-15T17:52:57;53.20;;;26.52;;
4521;SDS011;2273;48.464;11.926;2023-02-15T17:55:23;46.22;;;25.50;;
4521;SDS011;2273;48.464;11.926;2023-02-15T17:58:06;45.90;;;25.08;;
4521;SDS011;2273;48.464;11.926;2023-02-15T18:00:37;52.03;;;25.50;;